Darpan's ATC Tracking Thread {Closed}

ATC Tracking Thread


Thank you to all those who participate. I will be open for one hour intervals at several airports across the globe.

Feedback


You can submit feedback by either PMing me or leaving it here. All feedback and tips are appreciated!

Thank You Everybody!

4 Likes

Open @NZAA Approach


Pattern work encouraged. Feedback Appreciated.

ATIS


Departing Runway : 5R
Landing Runway : 5R
Pattern Work Accepted

Metar


NZAA 150130Z AUTO 02009KT 340V100 9999 FEW050/// 22/11 Q1025 NOSIG

Station: NZAA
Observed at: 2018-11-15 01:30:00Z
Temperature: 22.000°C (71.600°F)
Dewpoint: 11.000°C (51.800°F)
Winds: 9 knots at 20°
Visibility: 9994m (6.21sm)
Pressure: 1025 hPa (30.27 in Hg.)
Sky Conditions Few clouds at 5000

Charts


nzaa

Will be there :)

1 Like

you already are there. lol

1 Like

Exactly, that is the point I was defiantly trying to make

I have switched to approach frequency. @SkysTheLimit87 and @Connor thank you for coming, that was some … interesting… flying. lol

1 Like

Interesting for sure, very nice job on ATC!

1 Like

Thank You @Stef_Smet for joining me today. The second touch and go was very smooth.

1 Like

Slight loss of control on takeoff.

1 Like

I think i saw a passenger fall out of the back after that tail strike. lol

1 Like

Are you still open? If not please adjust your title of your post

1 Like

Open @KSJC Tower And Ground (Alternating with Approach)


Pattern work encouraged. Feedback Appreciated.

ATIS


Departing Runway : 30L & 30R
Landing Runway :30L and 30R
Pattern Work Accepted

Metar


METAR for KSJC

KSJC 152317Z 33004KT 1 3/4SM HZ FEW001 BKN020 OVC080 18/M01 A3007 RMK AO2 VIS SE 2 1/2 FU FEW001 FU BKN020 T01831011
Station: KSJC
Observed at: 2018-11-15 23:17:00Z
Temperature: 18.300°C (64.940°F)
Dewpoint: -1.100°C (30.020°F)
Winds: Calm
Visibility: 2816m (1.75sm)
Pressure: 1018 hPa (30.07 in Hg.)
Sky Conditions Few clouds at 100 Broken clouds at 2000 Overcast at 8000 Haze

SMOKE CONDITIONS FROM “CAMP FIRE” north of the Bay Area

Charts


Image result for KSJC charts

2 Likes

Make sure to let @BigBert10 know that you are open @ KSJC. He won’t want to miss out!

2 Likes

I just spawned at KSJC on Training, but there isn’t an active ATC.

2 Likes

I am norcal approach sorry about that. I can still vector you bak to KSJC

Open VHHH Approach and Departure


Pattern work encouraged. Feedback Appreciated.

ATIS


Departing Runway : 07R and 07L
Landing Runway : 07R and 07L
Pattern Work Accepted

Metar


METAR for VHHH

VHHH 170400Z 10010KT 9999 FEW012 SCT018 24/21 Q1016 NOSIG
Station: VHHH
Observed at: 2018-11-17 04:00:00Z
Temperature: 24.000°C (75.200°F)
Dewpoint: 21.000°C (69.800°F)
Winds: 10 knots at 100°
Visibility: 9994m (6.21sm)
Pressure: 1016 hPa (30.00 in Hg.)
Sky Conditions Few clouds at 1200 Scattered clouds at 1800

Open OMDB Tower


Pattern Work Encouraged. 4-5 Aircraft please! Feedback appreciated.

ATIS


Departing Runways : 12L and 12R
Landing Runways : 12L and 12R
Pattern Work Encouraged

Metar


METAR for OMDB

OMDB 250100Z 12010KT CAVOK 24/18 Q1017 NOSIG
Station: OMDB
Observed at: 2018-11-25 01:00:00Z
Temperature: 24.000°C (75.200°F)
Dewpoint: 18.000°C (64.400°F)
Winds: 10 knots at 120°
Visibility: 9994m (6.21sm)
Pressure: 1017 hPa (30.03 in Hg.) *
Sky Conditions* CAVOK

Open WSSS Tower


Pattern Work Encouraged! Feedback through PM’s is appreciated!

ATIS


Departing Runways 02L and 02C
Landing Runways 02L and 02C

Metar


METAR for WSSS

WSSS 252100Z VRB01KT 7000 -TSRA FEW014 FEW016CB FEW017TCU SCT160 24/22 Q1011 BECMG TL2115 NSW

Station: WSSS
Observed at: 2018-11-25 21:00:00Z
Temperature: 24.000°C (75.200°F)
Dewpoint: 22.000°C (71.600°F)
Winds: Calm Visibility: 7001m (4.35sm)
Pressure: 1011 hPa (29.85 in Hg.)
Sky Conditions Few clouds at 1400 Few clouds at 1600 Few clouds at 1700 Scattered clouds at 16000 Light Thunderstorm Rain

Could someone please come in and do some pattern work? I would really appreciate it!

Closed up, nobody came. 🥺